Fort Wainwright, AK (99703)

9:43 AM AKDT on October 21, 2014 (GMT -0800)
AKDOT Badger Road @ Old Richardson Highway | Change Station
CLOSE
Current Station
Personal Weather Station
Location: Badger, AK
Elevation: 495 ft
Nearby Weather Stations

Elev 495 ft 64.81 °N, 147.57 °W | Updated 51 minutes ago

Mostly Cloudy
Mostly Cloudy
27 °F
Feels Like 27 °F
N
1
Wind Variable Wind from East
Gusts 2.0 mph

Today
High -- | Low -- °F
--% Chance of Precip.
Yesterday
High -- | Low -- °F
Precip. -- in
9:02 AM 6:06 PM
Waning Crescent, 5% visible
Pressure 29.40 in
Visibility 25.0 miles
Clouds Scattered Clouds 4500 ft
Mostly Cloudy 11000 ft
Windchill 27 °F
Dew Point 22 °F
Humidity 79%
Rainfall -999.00 in
Snow Depth Not available.
UV 0 out of 12
Pollen Not available.
Air Quality Not available.
Flu Activity Sporadic
METAR PAFB 211655Z 06002KT 25SM SCT045 BKN110 M03/M06 A2938 RMK SLP956

More Conditions Fewer Conditions

Pressure 29.40 in
Visibility 25.0 miles
Clouds Scattered Clouds 4500 ft
Mostly Cloudy 11000 ft
Windchill 27 °F
Dew Point 22 °F
Humidity 79%
Rainfall -999.00 in
Snow Depth Not available.
UV 0 out of 12
Pollen Not available.
Air Quality Not available.
Flu Activity Sporadic
METAR PAFB 211655Z 06002KT 25SM SCT045 BKN110 M03/M06 A2938 RMK SLP956

More Conditions Fewer Conditions

10-Day Weather Forecast

Almanac

Astronomy

Oct. 21, 2014 Rise Set
Actual Time 9:02 AM AKDT 6:06 PM AKDT
Civil Twilight 8:11 AM AKDT 6:57 PM AKDT
Nautical Twilight 7:14 AM AKDT 7:54 PM AKDT
Astronomical Twilight 6:17 AM AKDT 8:51 PM AKDT
Moon 6:12 AM AKDT 5:40 PM AKDT
Length of Visible Light 10h 46m
Length of Day
9h 03m
Tomorrow will be 6m 44s shorter.
Waning Crescent, 5% of the Moon is Illuminated
Today
Waning Crescent
Oct 23
New
Oct 30
First Quarter
Nov 6
Full
Nov 14
Last Quarter

Today's Extremes

State Highs State Lows

Community

WunderPhotos

Upload Photos

1,763,733 photos uploaded!

Nearby

Snow Depth

Station Depth Elevation
Little Chena Ridge 5 in 2000 ft
Munson Ridge 11 in 3100 ft
Mt. Ryan 7 in 2800 ft
Monument Creek 5 in 1850 ft
Teuchet Creek 5 in 1640 ft

Earthquake Activity

City Distance Mag. Time & Date
No recent earthquake activity has been reported nearby.
Minimum magnitude displayed is 2.5.

Coastal Water Temperatures

Place Temperature
No Stations Reporting

Nearby Weather Stations